sensor_id;sensor_type;location;lat;lon;timestamp;P1;durP1;ratioP1;P2;durP2;ratioP2
36787;SDS011;22738;45.560;9.434;2023-02-17T00:04:48;15.00;;;9.13;;
36787;SDS011;22738;45.560;9.434;2023-02-17T00:11:29;14.75;;;8.25;;
36787;SDS011;22738;45.560;9.434;2023-02-17T00:18:10;14.73;;;8.02;;
36787;SDS011;22738;45.560;9.434;2023-02-17T00:24:51;13.02;;;8.20;;
36787;SDS011;22738;45.560;9.434;2023-02-17T00:31:33;15.23;;;8.38;;
36787;SDS011;22738;45.560;9.434;2023-02-17T00:38:14;16.17;;;8.38;;
36787;SDS011;22738;45.560;9.434;2023-02-17T00:44:55;15.27;;;8.23;;
36787;SDS011;22738;45.560;9.434;2023-02-17T00:51:36;14.18;;;7.60;;
36787;SDS011;22738;45.560;9.434;2023-02-17T00:58:18;11.10;;;6.57;;
36787;SDS011;22738;45.560;9.434;2023-02-17T01:05:01;14.75;;;8.13;;
36787;SDS011;22738;45.560;9.434;2023-02-17T01:11:42;14.00;;;8.07;;
36787;SDS011;22738;45.560;9.434;2023-02-17T01:18:23;17.63;;;8.75;;
36787;SDS011;22738;45.560;9.434;2023-02-17T01:25:05;16.17;;;8.02;;
36787;SDS011;22738;45.560;9.434;2023-02-17T01:31:47;12.18;;;7.57;;
36787;SDS011;22738;45.560;9.434;2023-02-17T01:38:28;14.50;;;8.13;;
36787;SDS011;22738;45.560;9.434;2023-02-17T01:52:05;14.20;;;6.90;;
36787;SDS011;22738;45.560;9.434;2023-02-17T01:58:52;14.95;;;7.75;;
36787;SDS011;22738;45.560;9.434;2023-02-17T02:05:37;15.07;;;7.60;;
36787;SDS011;22738;45.560;9.434;2023-02-17T02:12:24;13.77;;;7.38;;
36787;SDS011;22738;45.560;9.434;2023-02-17T02:40:10;10.50;;;6.50;;
36787;SDS011;22738;45.560;9.434;2023-02-17T02:46:56;14.95;;;7.10;;
36787;SDS011;22738;45.560;9.434;2023-02-17T02:53:50;16.17;;;8.23;;
36787;SDS011;22738;45.560;9.434;2023-02-17T03:07:45;18.65;;;9.00;;
36787;SDS011;22738;45.560;9.434;2023-02-17T03:14:36;14.73;;;8.32;;
36787;SDS011;22738;45.560;9.434;2023-02-17T03:21:18;16.07;;;8.93;;
36787;SDS011;22738;45.560;9.434;2023-02-17T03:27:59;14.30;;;7.47;;
36787;SDS011;22738;45.560;9.434;2023-02-17T03:34:40;17.45;;;9.10;;
36787;SDS011;22738;45.560;9.434;2023-02-17T03:41:21;11.95;;;7.95;;
36787;SDS011;22738;45.560;9.434;2023-02-17T03:48:03;16.63;;;8.52;;
36787;SDS011;22738;45.560;9.434;2023-02-17T03:54:44;15.05;;;8.05;;
36787;SDS011;22738;45.560;9.434;2023-02-17T04:01:25;13.30;;;7.53;;
36787;SDS011;22738;45.560;9.434;2023-02-17T04:08:06;14.75;;;8.07;;
36787;SDS011;22738;45.560;9.434;2023-02-17T04:14:47;13.20;;;7.88;;
36787;SDS011;22738;45.560;9.434;2023-02-17T04:21:28;15.82;;;7.53;;
36787;SDS011;22738;45.560;9.434;2023-02-17T04:28:09;18.42;;;9.68;;
36787;SDS011;22738;45.560;9.434;2023-02-17T04:34:51;19.55;;;9.70;;
36787;SDS011;22738;45.560;9.434;2023-02-17T04:41:32;15.07;;;8.45;;
36787;SDS011;22738;45.560;9.434;2023-02-17T04:48:13;21.80;;;10.57;;
36787;SDS011;22738;45.560;9.434;2023-02-17T04:54:54;17.42;;;9.30;;
36787;SDS011;22738;45.560;9.434;2023-02-17T05:01:35;21.25;;;9.00;;
36787;SDS011;22738;45.560;9.434;2023-02-17T05:08:16;16.38;;;8.48;;
36787;SDS011;22738;45.560;9.434;2023-02-17T05:14:57;19.27;;;8.50;;
36787;SDS011;22738;45.560;9.434;2023-02-17T05:21:38;19.95;;;10.10;;
36787;SDS011;22738;45.560;9.434;2023-02-17T05:28:19;18.70;;;9.20;;
36787;SDS011;22738;45.560;9.434;2023-02-17T05:35:00;16.98;;;9.40;;
36787;SDS011;22738;45.560;9.434;2023-02-17T05:41:41;21.98;;;10.13;;
36787;SDS011;22738;45.560;9.434;2023-02-17T05:48:22;19.88;;;10.45;;
36787;SDS011;22738;45.560;9.434;2023-02-17T05:55:04;20.42;;;9.65;;
36787;SDS011;22738;45.560;9.434;2023-02-17T06:01:45;20.27;;;9.68;;
36787;SDS011;22738;45.560;9.434;2023-02-17T06:08:26;19.98;;;9.93;;
36787;SDS011;22738;45.560;9.434;2023-02-17T06:15:07;23.45;;;11.40;;
36787;SDS011;22738;45.560;9.434;2023-02-17T06:21:49;21.70;;;11.07;;
36787;SDS011;22738;45.560;9.434;2023-02-17T06:28:30;23.65;;;11.05;;
36787;SDS011;22738;45.560;9.434;2023-02-17T06:35:12;24.20;;;11.10;;
36787;SDS011;22738;45.560;9.434;2023-02-17T06:41:53;23.02;;;11.60;;
36787;SDS011;22738;45.560;9.434;2023-02-17T06:48:36;23.83;;;11.13;;
36787;SDS011;22738;45.560;9.434;2023-02-17T06:55:17;28.73;;;12.63;;
36787;SDS011;22738;45.560;9.434;2023-02-17T07:01:58;28.83;;;13.85;;
36787;SDS011;22738;45.560;9.434;2023-02-17T07:08:39;39.00;;;18.15;;
36787;SDS011;22738;45.560;9.434;2023-02-17T07:15:20;32.53;;;14.88;;
36787;SDS011;22738;45.560;9.434;2023-02-17T07:22:01;30.10;;;15.05;;
36787;SDS011;22738;45.560;9.434;2023-02-17T07:28:42;33.25;;;16.65;;
36787;SDS011;22738;45.560;9.434;2023-02-17T07:35:24;34.88;;;17.55;;
36787;SDS011;22738;45.560;9.434;2023-02-17T07:42:05;34.03;;;16.17;;
36787;SDS011;22738;45.560;9.434;2023-02-17T07:48:46;29.17;;;16.02;;
36787;SDS011;22738;45.560;9.434;2023-02-17T07:55:27;33.58;;;17.88;;
36787;SDS011;22738;45.560;9.434;2023-02-17T08:02:10;23.55;;;14.13;;
36787;SDS011;22738;45.560;9.434;2023-02-17T08:08:53;23.07;;;14.30;;
36787;SDS011;22738;45.560;9.434;2023-02-17T08:15:56;26.07;;;15.03;;
36787;SDS011;22738;45.560;9.434;2023-02-17T08:22:38;26.97;;;16.30;;
36787;SDS011;22738;45.560;9.434;2023-02-17T08:29:20;25.52;;;13.90;;
36787;SDS011;22738;45.560;9.434;2023-02-17T08:36:04;23.92;;;14.30;;
36787;SDS011;22738;45.560;9.434;2023-02-17T08:42:47;26.63;;;14.68;;
36787;SDS011;22738;45.560;9.434;2023-02-17T08:49:28;23.35;;;14.60;;
36787;SDS011;22738;45.560;9.434;2023-02-17T09:02:54;28.73;;;15.48;;
36787;SDS011;22738;45.560;9.434;2023-02-17T09:09:37;26.10;;;16.13;;
36787;SDS011;22738;45.560;9.434;2023-02-17T09:16:18;33.67;;;18.10;;
36787;SDS011;22738;45.560;9.434;2023-02-17T09:23:04;29.52;;;16.00;;
36787;SDS011;22738;45.560;9.434;2023-02-17T09:29:45;25.30;;;15.20;;
36787;SDS011;22738;45.560;9.434;2023-02-17T09:36:28;32.88;;;17.60;;
36787;SDS011;22738;45.560;9.434;2023-02-17T09:43:14;28.25;;;16.35;;
36787;SDS011;22738;45.560;9.434;2023-02-17T09:50:04;48.85;;;24.30;;
36787;SDS011;22738;45.560;9.434;2023-02-17T09:56:51;36.60;;;18.38;;
36787;SDS011;22738;45.560;9.434;2023-02-17T10:03:40;32.58;;;17.15;;
36787;SDS011;22738;45.560;9.434;2023-02-17T10:10:35;28.85;;;16.08;;
36787;SDS011;22738;45.560;9.434;2023-02-17T10:24:09;28.77;;;16.10;;
36787;SDS011;22738;45.560;9.434;2023-02-17T10:30:57;27.67;;;14.40;;
36787;SDS011;22738;45.560;9.434;2023-02-17T10:37:55;26.63;;;14.88;;
36787;SDS011;22738;45.560;9.434;2023-02-17T10:44:47;26.80;;;16.02;;
36787;SDS011;22738;45.560;9.434;2023-02-17T10:51:29;26.95;;;15.75;;
36787;SDS011;22738;45.560;9.434;2023-02-17T10:58:28;25.65;;;15.15;;
36787;SDS011;22738;45.560;9.434;2023-02-17T11:05:21;28.23;;;16.55;;
36787;SDS011;22738;45.560;9.434;2023-02-17T11:12:10;29.67;;;15.63;;
36787;SDS011;22738;45.560;9.434;2023-02-17T11:18:54;25.38;;;14.30;;
36787;SDS011;22738;45.560;9.434;2023-02-17T11:25:36;21.38;;;12.82;;
36787;SDS011;22738;45.560;9.434;2023-02-17T11:32:17;20.88;;;12.38;;
36787;SDS011;22738;45.560;9.434;2023-02-17T11:38:59;20.38;;;11.45;;
36787;SDS011;22738;45.560;9.434;2023-02-17T12:00:41;16.83;;;9.85;;
36787;SDS011;22738;45.560;9.434;2023-02-17T12:35:25;19.13;;;10.82;;
36787;SDS011;22738;45.560;9.434;2023-02-17T12:42:16;16.65;;;9.70;;
36787;SDS011;22738;45.560;9.434;2023-02-17T12:49:01;20.58;;;10.50;;
36787;SDS011;22738;45.560;9.434;2023-02-17T12:55:57;18.50;;;9.40;;
36787;SDS011;22738;45.560;9.434;2023-02-17T13:02:41;19.17;;;10.52;;
36787;SDS011;22738;45.560;9.434;2023-02-17T13:16:29;24.80;;;11.93;;
36787;SDS011;22738;45.560;9.434;2023-02-17T13:36:58;22.73;;;13.23;;
36787;SDS011;22738;45.560;9.434;2023-02-17T13:43:41;22.40;;;11.93;;
36787;SDS011;22738;45.560;9.434;2023-02-17T13:50:25;25.97;;;12.90;;
36787;SDS011;22738;45.560;9.434;2023-02-17T13:57:31;27.05;;;12.63;;
36787;SDS011;22738;45.560;9.434;2023-02-17T14:04:18;21.63;;;11.45;;
36787;SDS011;22738;45.560;9.434;2023-02-17T14:11:17;25.52;;;13.55;;
36787;SDS011;22738;45.560;9.434;2023-02-17T14:18:11;22.30;;;12.30;;
36787;SDS011;22738;45.560;9.434;2023-02-17T14:31:44;24.20;;;12.00;;
36787;SDS011;22738;45.560;9.434;2023-02-17T14:38:34;26.15;;;11.95;;
36787;SDS011;22738;45.560;9.434;2023-02-17T14:45:17;40.97;;;18.23;;
36787;SDS011;22738;45.560;9.434;2023-02-17T14:51:58;25.92;;;14.10;;
36787;SDS011;22738;45.560;9.434;2023-02-17T14:58:58;21.08;;;11.40;;
36787;SDS011;22738;45.560;9.434;2023-02-17T15:05:39;24.15;;;12.82;;
36787;SDS011;22738;45.560;9.434;2023-02-17T15:12:21;27.10;;;13.60;;
36787;SDS011;22738;45.560;9.434;2023-02-17T15:19:03;27.55;;;13.07;;
36787;SDS011;22738;45.560;9.434;2023-02-17T15:25:44;27.73;;;13.80;;
36787;SDS011;22738;45.560;9.434;2023-02-17T15:32:25;21.17;;;11.57;;
36787;SDS011;22738;45.560;9.434;2023-02-17T15:39:10;30.40;;;12.93;;
36787;SDS011;22738;45.560;9.434;2023-02-17T15:45:53;25.42;;;11.68;;
36787;SDS011;22738;45.560;9.434;2023-02-17T15:52:34;22.85;;;11.23;;
36787;SDS011;22738;45.560;9.434;2023-02-17T15:59:16;19.17;;;10.23;;
36787;SDS011;22738;45.560;9.434;2023-02-17T16:06:00;26.95;;;13.40;;
36787;SDS011;22738;45.560;9.434;2023-02-17T16:12:41;25.95;;;11.95;;
36787;SDS011;22738;45.560;9.434;2023-02-17T16:19:25;21.48;;;11.13;;
36787;SDS011;22738;45.560;9.434;2023-02-17T16:26:23;20.40;;;9.73;;
36787;SDS011;22738;45.560;9.434;2023-02-17T16:33:08;15.27;;;9.02;;
36787;SDS011;22738;45.560;9.434;2023-02-17T16:39:50;25.37;;;11.90;;
36787;SDS011;22738;45.560;9.434;2023-02-17T16:46:32;19.52;;;10.40;;
36787;SDS011;22738;45.560;9.434;2023-02-17T16:53:16;23.15;;;9.85;;
36787;SDS011;22738;45.560;9.434;2023-02-17T16:59:58;23.40;;;11.27;;
36787;SDS011;22738;45.560;9.434;2023-02-17T17:06:41;22.23;;;11.85;;
36787;SDS011;22738;45.560;9.434;2023-02-17T17:13:28;18.88;;;10.20;;
36787;SDS011;22738;45.560;9.434;2023-02-17T17:20:14;24.63;;;11.13;;
36787;SDS011;22738;45.560;9.434;2023-02-17T17:26:57;26.02;;;12.48;;
36787;SDS011;22738;45.560;9.434;2023-02-17T17:33:39;26.90;;;12.82;;
36787;SDS011;22738;45.560;9.434;2023-02-17T17:40:24;33.13;;;14.73;;
36787;SDS011;22738;45.560;9.434;2023-02-17T17:47:13;29.85;;;13.35;;
36787;SDS011;22738;45.560;9.434;2023-02-17T17:54:00;36.65;;;16.17;;
36787;SDS011;22738;45.560;9.434;2023-02-17T18:00:42;33.03;;;16.65;;
36787;SDS011;22738;45.560;9.434;2023-02-17T18:07:24;33.75;;;15.82;;
36787;SDS011;22738;45.560;9.434;2023-02-17T18:14:06;33.55;;;15.85;;
36787;SDS011;22738;45.560;9.434;2023-02-17T18:20:50;34.40;;;14.80;;
36787;SDS011;22738;45.560;9.434;2023-02-17T18:27:42;37.72;;;17.50;;
36787;SDS011;22738;45.560;9.434;2023-02-17T18:34:25;38.45;;;17.05;;
36787;SDS011;22738;45.560;9.434;2023-02-17T18:41:06;34.78;;;16.55;;
36787;SDS011;22738;45.560;9.434;2023-02-17T18:47:48;36.33;;;16.30;;
36787;SDS011;22738;45.560;9.434;2023-02-17T18:54:29;37.83;;;15.05;;
36787;SDS011;22738;45.560;9.434;2023-02-17T19:01:14;24.02;;;12.70;;
36787;SDS011;22738;45.560;9.434;2023-02-17T19:07:59;25.70;;;12.48;;
36787;SDS011;22738;45.560;9.434;2023-02-17T19:14:40;30.10;;;13.57;;
36787;SDS011;22738;45.560;9.434;2023-02-17T19:21:22;29.42;;;14.10;;
36787;SDS011;22738;45.560;9.434;2023-02-17T19:28:03;28.10;;;12.48;;
36787;SDS011;22738;45.560;9.434;2023-02-17T19:34:45;27.88;;;14.05;;
36787;SDS011;22738;45.560;9.434;2023-02-17T19:41:26;30.70;;;14.45;;
36787;SDS011;22738;45.560;9.434;2023-02-17T19:48:07;27.42;;;13.68;;
36787;SDS011;22738;45.560;9.434;2023-02-17T19:54:49;30.75;;;15.27;;
36787;SDS011;22738;45.560;9.434;2023-02-17T20:01:30;29.13;;;14.05;;
36787;SDS011;22738;45.560;9.434;2023-02-17T20:08:13;30.23;;;13.82;;
36787;SDS011;22738;45.560;9.434;2023-02-17T20:14:54;31.45;;;14.55;;
36787;SDS011;22738;45.560;9.434;2023-02-17T20:21:35;24.05;;;11.88;;
36787;SDS011;22738;45.560;9.434;2023-02-17T20:28:18;20.88;;;11.63;;
36787;SDS011;22738;45.560;9.434;2023-02-17T20:35:00;20.88;;;10.70;;
36787;SDS011;22738;45.560;9.434;2023-02-17T20:41:41;16.00;;;9.38;;
36787;SDS011;22738;45.560;9.434;2023-02-17T20:48:22;21.95;;;9.38;;
36787;SDS011;22738;45.560;9.434;2023-02-17T20:55:07;16.63;;;8.77;;
36787;SDS011;22738;45.560;9.434;2023-02-17T21:01:48;20.02;;;9.13;;
36787;SDS011;22738;45.560;9.434;2023-02-17T21:08:29;17.73;;;8.88;;
36787;SDS011;22738;45.560;9.434;2023-02-17T21:15:10;14.73;;;8.07;;
36787;SDS011;22738;45.560;9.434;2023-02-17T21:21:52;19.15;;;9.05;;
36787;SDS011;22738;45.560;9.434;2023-02-17T21:28:33;20.75;;;10.10;;
36787;SDS011;22738;45.560;9.434;2023-02-17T21:35:14;17.05;;;9.23;;
36787;SDS011;22738;45.560;9.434;2023-02-17T21:41:55;19.10;;;8.88;;
36787;SDS011;22738;45.560;9.434;2023-02-17T21:48:36;16.63;;;8.45;;
36787;SDS011;22738;45.560;9.434;2023-02-17T21:55:17;16.35;;;8.30;;
36787;SDS011;22738;45.560;9.434;2023-02-17T22:01:58;20.40;;;10.38;;
36787;SDS011;22738;45.560;9.434;2023-02-17T22:08:39;24.17;;;12.65;;
36787;SDS011;22738;45.560;9.434;2023-02-17T22:15:20;23.08;;;12.50;;
36787;SDS011;22738;45.560;9.434;2023-02-17T22:22:02;20.52;;;10.52;;
36787;SDS011;22738;45.560;9.434;2023-02-17T22:28:44;27.15;;;11.60;;
36787;SDS011;22738;45.560;9.434;2023-02-17T22:35:25;23.08;;;11.45;;
36787;SDS011;22738;45.560;9.434;2023-02-17T22:42:06;21.02;;;10.65;;
36787;SDS011;22738;45.560;9.434;2023-02-17T22:48:48;21.27;;;10.70;;
36787;SDS011;22738;45.560;9.434;2023-02-17T22:55:30;24.40;;;11.67;;
36787;SDS011;22738;45.560;9.434;2023-02-17T23:02:11;25.02;;;10.93;;
36787;SDS011;22738;45.560;9.434;2023-02-17T23:08:52;20.40;;;10.13;;
36787;SDS011;22738;45.560;9.434;2023-02-17T23:15:37;20.83;;;11.57;;
36787;SDS011;22738;45.560;9.434;2023-02-17T23:22:19;20.85;;;10.40;;
36787;SDS011;22738;45.560;9.434;2023-02-17T23:29:00;20.77;;;10.95;;
36787;SDS011;22738;45.560;9.434;2023-02-17T23:35:41;24.25;;;10.65;;
36787;SDS011;22738;45.560;9.434;2023-02-17T23:42:27;21.80;;;10.10;;
36787;SDS011;22738;45.560;9.434;2023-02-17T23:49:09;21.00;;;10.88;;
